sensor_id;sensor_type;location;lat;lon;timestamp;P1;durP1;ratioP1;P2;durP2;ratioP2
50906;SDS011;36882;27.680;85.304;2022-10-16T00:01:45;27.48;;;22.20;;
50906;SDS011;36882;27.680;85.304;2022-10-16T00:04:16;30.92;;;21.85;;
50906;SDS011;36882;27.680;85.304;2022-10-16T00:06:46;29.33;;;22.17;;
50906;SDS011;36882;27.680;85.304;2022-10-16T00:09:16;36.90;;;22.75;;
50906;SDS011;36882;27.680;85.304;2022-10-16T00:11:46;26.55;;;20.23;;
50906;SDS011;36882;27.680;85.304;2022-10-16T00:14:16;29.20;;;21.00;;
50906;SDS011;36882;27.680;85.304;2022-10-16T00:16:46;28.15;;;19.02;;
50906;SDS011;36882;27.680;85.304;2022-10-16T00:19:16;30.13;;;19.83;;
50906;SDS011;36882;27.680;85.304;2022-10-16T00:21:46;23.58;;;18.45;;
50906;SDS011;36882;27.680;85.304;2022-10-16T00:24:16;31.90;;;18.90;;
50906;SDS011;36882;27.680;85.304;2022-10-16T00:26:46;27.92;;;20.25;;
50906;SDS011;36882;27.680;85.304;2022-10-16T00:29:19;28.33;;;20.83;;
50906;SDS011;36882;27.680;85.304;2022-10-16T00:31:49;30.52;;;21.13;;
50906;SDS011;36882;27.680;85.304;2022-10-16T00:36:49;32.13;;;20.20;;
50906;SDS011;36882;27.680;85.304;2022-10-16T00:39:19;36.80;;;25.15;;
50906;SDS011;36882;27.680;85.304;2022-10-16T00:41:50;34.92;;;21.45;;
50906;SDS011;36882;27.680;85.304;2022-10-16T00:47:13;32.70;;;20.30;;
50906;SDS011;36882;27.680;85.304;2022-10-16T00:49:48;29.30;;;19.33;;
50906;SDS011;36882;27.680;85.304;2022-10-16T00:52:21;27.98;;;19.75;;
50906;SDS011;36882;27.680;85.304;2022-10-16T00:54:52;28.25;;;19.45;;
50906;SDS011;36882;27.680;85.304;2022-10-16T00:57:23;28.13;;;18.95;;
50906;SDS011;36882;27.680;85.304;2022-10-16T00:59:54;28.88;;;18.17;;
50906;SDS011;36882;27.680;85.304;2022-10-16T01:02:25;27.95;;;17.27;;
50906;SDS011;36882;27.680;85.304;2022-10-16T01:04:55;31.75;;;19.30;;
50906;SDS011;36882;27.680;85.304;2022-10-16T01:07:45;31.58;;;21.05;;
50906;SDS011;36882;27.680;85.304;2022-10-16T01:10:27;30.30;;;18.73;;
50906;SDS011;36882;27.680;85.304;2022-10-16T01:13:15;26.77;;;18.80;;
50906;SDS011;36882;27.680;85.304;2022-10-16T01:15:56;25.23;;;18.60;;
50906;SDS011;36882;27.680;85.304;2022-10-16T01:18:37;26.45;;;16.70;;
50906;SDS011;36882;27.680;85.304;2022-10-16T01:21:29;20.88;;;15.98;;
50906;SDS011;36882;27.680;85.304;2022-10-16T01:24:13;25.80;;;16.35;;
50906;SDS011;36882;27.680;85.304;2022-10-16T01:27:12;23.15;;;17.85;;
50906;SDS011;36882;27.680;85.304;2022-10-16T01:29:48;26.35;;;17.50;;
50906;SDS011;36882;27.680;85.304;2022-10-16T01:32:31;24.02;;;18.48;;
50906;SDS011;36882;27.680;85.304;2022-10-16T01:38:07;26.00;;;16.65;;
50906;SDS011;36882;27.680;85.304;2022-10-16T01:40:46;26.33;;;17.37;;
50906;SDS011;36882;27.680;85.304;2022-10-16T01:43:24;24.17;;;16.67;;
50906;SDS011;36882;27.680;85.304;2022-10-16T01:46:00;33.63;;;18.77;;
50906;SDS011;36882;27.680;85.304;2022-10-16T01:48:31;32.83;;;19.63;;
50906;SDS011;36882;27.680;85.304;2022-10-16T01:51:06;39.92;;;20.85;;
50906;SDS011;36882;27.680;85.304;2022-10-16T01:53:38;42.75;;;21.40;;
50906;SDS011;36882;27.680;85.304;2022-10-16T01:56:10;33.08;;;20.38;;
50906;SDS011;36882;27.680;85.304;2022-10-16T01:58:45;37.63;;;21.17;;
50906;SDS011;36882;27.680;85.304;2022-10-16T02:01:21;32.22;;;21.48;;
50906;SDS011;36882;27.680;85.304;2022-10-16T02:03:54;37.25;;;21.23;;
50906;SDS011;36882;27.680;85.304;2022-10-16T02:06:28;40.53;;;22.58;;
50906;SDS011;36882;27.680;85.304;2022-10-16T02:08:58;37.65;;;21.58;;
50906;SDS011;36882;27.680;85.304;2022-10-16T02:11:30;33.92;;;22.45;;
50906;SDS011;36882;27.680;85.304;2022-10-16T02:16:34;34.78;;;23.02;;
50906;SDS011;36882;27.680;85.304;2022-10-16T02:19:08;37.15;;;23.45;;
50906;SDS011;36882;27.680;85.304;2022-10-16T02:21:43;37.50;;;22.13;;
50906;SDS011;36882;27.680;85.304;2022-10-16T02:27:26;37.20;;;23.70;;
50906;SDS011;36882;27.680;85.304;2022-10-16T02:30:11;43.70;;;26.17;;
50906;SDS011;36882;27.680;85.304;2022-10-16T02:32:53;33.92;;;23.80;;
50906;SDS011;36882;27.680;85.304;2022-10-16T02:35:24;37.05;;;24.58;;
50906;SDS011;36882;27.680;85.304;2022-10-16T02:37:56;33.85;;;24.17;;
50906;SDS011;36882;27.680;85.304;2022-10-16T02:40:26;34.22;;;23.88;;
50906;SDS011;36882;27.680;85.304;2022-10-16T02:42:57;34.17;;;24.80;;
50906;SDS011;36882;27.680;85.304;2022-10-16T02:45:27;41.60;;;25.33;;
50906;SDS011;36882;27.680;85.304;2022-10-16T02:47:58;37.92;;;25.33;;
50906;SDS011;36882;27.680;85.304;2022-10-16T02:50:28;39.17;;;27.95;;
50906;SDS011;36882;27.680;85.304;2022-10-16T02:53:00;44.42;;;28.08;;
50906;SDS011;36882;27.680;85.304;2022-10-16T02:57:59;49.83;;;33.97;;
50906;SDS011;36882;27.680;85.304;2022-10-16T03:00:29;46.35;;;33.13;;
50906;SDS011;36882;27.680;85.304;2022-10-16T03:02:59;49.58;;;32.05;;
50906;SDS011;36882;27.680;85.304;2022-10-16T03:07:58;44.10;;;32.85;;
50906;SDS011;36882;27.680;85.304;2022-10-16T03:10:29;43.47;;;28.98;;
50906;SDS011;36882;27.680;85.304;2022-10-16T03:12:58;34.88;;;26.27;;
50906;SDS011;36882;27.680;85.304;2022-10-16T03:17:59;38.53;;;26.48;;
50906;SDS011;36882;27.680;85.304;2022-10-16T03:20:29;37.90;;;27.30;;
50906;SDS011;36882;27.680;85.304;2022-10-16T03:22:59;32.05;;;22.63;;
50906;SDS011;36882;27.680;85.304;2022-10-16T03:25:30;34.47;;;24.00;;
50906;SDS011;36882;27.680;85.304;2022-10-16T03:28:00;32.38;;;21.27;;
50906;SDS011;36882;27.680;85.304;2022-10-16T03:30:31;30.98;;;19.30;;
50906;SDS011;36882;27.680;85.304;2022-10-16T03:33:02;22.85;;;17.30;;
50906;SDS011;36882;27.680;85.304;2022-10-16T03:35:32;29.63;;;17.38;;
50906;SDS011;36882;27.680;85.304;2022-10-16T03:38:03;28.10;;;17.65;;
50906;SDS011;36882;27.680;85.304;2022-10-16T03:40:36;23.15;;;17.60;;
50906;SDS011;36882;27.680;85.304;2022-10-16T03:43:06;24.85;;;17.45;;
50906;SDS011;36882;27.680;85.304;2022-10-16T03:48:05;23.65;;;16.42;;
50906;SDS011;36882;27.680;85.304;2022-10-16T03:50:35;22.88;;;14.35;;
50906;SDS011;36882;27.680;85.304;2022-10-16T03:53:06;18.48;;;12.65;;
50906;SDS011;36882;27.680;85.304;2022-10-16T03:55:36;18.33;;;13.43;;
50906;SDS011;36882;27.680;85.304;2022-10-16T03:58:07;21.73;;;13.02;;
50906;SDS011;36882;27.680;85.304;2022-10-16T04:00:44;16.73;;;13.05;;
50906;SDS011;36882;27.680;85.304;2022-10-16T04:03:16;23.60;;;16.45;;
50906;SDS011;36882;27.680;85.304;2022-10-16T04:05:47;22.42;;;14.57;;
50906;SDS011;36882;27.680;85.304;2022-10-16T04:08:17;24.70;;;15.48;;
50906;SDS011;36882;27.680;85.304;2022-10-16T04:15:47;34.00;;;17.52;;
50906;SDS011;36882;27.680;85.304;2022-10-16T04:18:17;23.75;;;17.38;;
50906;SDS011;36882;27.680;85.304;2022-10-16T04:20:47;17.48;;;13.00;;
50906;SDS011;36882;27.680;85.304;2022-10-16T04:23:17;24.33;;;14.15;;
50906;SDS011;36882;27.680;85.304;2022-10-16T04:28:17;25.08;;;15.85;;
50906;SDS011;36882;27.680;85.304;2022-10-16T04:33:16;17.55;;;12.70;;
50906;SDS011;36882;27.680;85.304;2022-10-16T04:35:46;21.33;;;13.38;;
50906;SDS011;36882;27.680;85.304;2022-10-16T04:40:46;27.90;;;12.65;;
50906;SDS011;36882;27.680;85.304;2022-10-16T04:43:16;24.40;;;14.90;;
50906;SDS011;36882;27.680;85.304;2022-10-16T04:45:46;37.83;;;14.90;;
50906;SDS011;36882;27.680;85.304;2022-10-16T04:48:18;19.10;;;14.18;;
50906;SDS011;36882;27.680;85.304;2022-10-16T04:50:49;25.13;;;14.75;;
50906;SDS011;36882;27.680;85.304;2022-10-16T04:53:21;24.95;;;16.13;;
50906;SDS011;36882;27.680;85.304;2022-10-16T04:55:51;20.55;;;14.27;;
50906;SDS011;36882;27.680;85.304;2022-10-16T04:58:21;20.48;;;14.20;;
50906;SDS011;36882;27.680;85.304;2022-10-16T05:03:21;25.65;;;11.98;;
50906;SDS011;36882;27.680;85.304;2022-10-16T05:05:50;27.25;;;13.25;;
50906;SDS011;36882;27.680;85.304;2022-10-16T05:10:50;15.85;;;7.40;;
50906;SDS011;36882;27.680;85.304;2022-10-16T05:15:49;11.30;;;7.63;;
50906;SDS011;36882;27.680;85.304;2022-10-16T05:20:48;11.68;;;8.90;;
50906;SDS011;36882;27.680;85.304;2022-10-16T05:26:02;14.07;;;8.05;;
50906;SDS011;36882;27.680;85.304;2022-10-16T05:28:32;16.60;;;10.07;;
50906;SDS011;36882;27.680;85.304;2022-10-16T05:31:04;19.80;;;11.82;;
50906;SDS011;36882;27.680;85.304;2022-10-16T05:33:36;21.35;;;10.77;;
50906;SDS011;36882;27.680;85.304;2022-10-16T05:36:07;27.10;;;10.15;;
50906;SDS011;36882;27.680;85.304;2022-10-16T05:38:40;18.08;;;7.97;;
50906;SDS011;36882;27.680;85.304;2022-10-16T05:43:40;8.90;;;4.88;;
50906;SDS011;36882;27.680;85.304;2022-10-16T05:48:39;11.80;;;7.35;;
50906;SDS011;36882;27.680;85.304;2022-10-16T05:51:10;16.63;;;7.25;;
50906;SDS011;36882;27.680;85.304;2022-10-16T05:53:42;19.33;;;7.20;;
50906;SDS011;36882;27.680;85.304;2022-10-16T05:56:12;18.67;;;8.13;;
50906;SDS011;36882;27.680;85.304;2022-10-16T05:58:42;18.42;;;7.75;;
50906;SDS011;36882;27.680;85.304;2022-10-16T06:01:14;14.57;;;6.25;;
50906;SDS011;36882;27.680;85.304;2022-10-16T06:03:46;11.40;;;7.30;;
50906;SDS011;36882;27.680;85.304;2022-10-16T06:06:17;19.25;;;7.97;;
50906;SDS011;36882;27.680;85.304;2022-10-16T06:08:49;19.67;;;8.35;;
50906;SDS011;36882;27.680;85.304;2022-10-16T06:11:21;16.98;;;8.43;;
50906;SDS011;36882;27.680;85.304;2022-10-16T06:13:54;15.10;;;8.38;;
50906;SDS011;36882;27.680;85.304;2022-10-16T06:16:26;13.23;;;6.68;;
50906;SDS011;36882;27.680;85.304;2022-10-16T06:18:56;14.18;;;7.60;;
50906;SDS011;36882;27.680;85.304;2022-10-16T06:21:28;12.52;;;6.95;;
50906;SDS011;36882;27.680;85.304;2022-10-16T06:23:58;13.32;;;7.85;;
50906;SDS011;36882;27.680;85.304;2022-10-16T06:26:29;13.07;;;7.18;;
50906;SDS011;36882;27.680;85.304;2022-10-16T06:29:00;14.65;;;7.25;;
50906;SDS011;36882;27.680;85.304;2022-10-16T06:31:30;12.60;;;6.57;;
50906;SDS011;36882;27.680;85.304;2022-10-16T06:34:01;8.20;;;5.30;;
50906;SDS011;36882;27.680;85.304;2022-10-16T06:36:33;13.45;;;6.43;;
50906;SDS011;36882;27.680;85.304;2022-10-16T06:39:04;9.15;;;5.28;;
50906;SDS011;36882;27.680;85.304;2022-10-16T06:41:35;11.05;;;5.57;;
50906;SDS011;36882;27.680;85.304;2022-10-16T06:44:06;15.68;;;5.32;;
50906;SDS011;36882;27.680;85.304;2022-10-16T06:46:37;8.15;;;5.00;;
50906;SDS011;36882;27.680;85.304;2022-10-16T06:49:07;10.93;;;5.93;;
50906;SDS011;36882;27.680;85.304;2022-10-16T06:51:38;8.20;;;5.45;;
50906;SDS011;36882;27.680;85.304;2022-10-16T06:54:09;12.23;;;5.28;;
50906;SDS011;36882;27.680;85.304;2022-10-16T06:56:40;5.93;;;4.25;;
50906;SDS011;36882;27.680;85.304;2022-10-16T06:59:12;9.27;;;5.32;;
50906;SDS011;36882;27.680;85.304;2022-10-16T07:01:42;9.27;;;4.75;;
50906;SDS011;36882;27.680;85.304;2022-10-16T07:04:13;9.05;;;4.82;;
50906;SDS011;36882;27.680;85.304;2022-10-16T07:06:44;10.43;;;5.43;;
50906;SDS011;36882;27.680;85.304;2022-10-16T07:09:14;10.30;;;4.28;;
50906;SDS011;36882;27.680;85.304;2022-10-16T07:11:45;6.72;;;4.50;;
50906;SDS011;36882;27.680;85.304;2022-10-16T07:14:16;5.85;;;3.92;;
50906;SDS011;36882;27.680;85.304;2022-10-16T07:16:48;6.00;;;4.10;;
50906;SDS011;36882;27.680;85.304;2022-10-16T07:19:19;12.07;;;4.82;;
50906;SDS011;36882;27.680;85.304;2022-10-16T07:21:49;6.50;;;4.47;;
50906;SDS011;36882;27.680;85.304;2022-10-16T07:24:20;9.75;;;4.68;;
50906;SDS011;36882;27.680;85.304;2022-10-16T07:26:52;5.90;;;4.88;;
50906;SDS011;36882;27.680;85.304;2022-10-16T07:29:23;7.47;;;4.70;;
50906;SDS011;36882;27.680;85.304;2022-10-16T07:31:53;6.80;;;4.72;;
50906;SDS011;36882;27.680;85.304;2022-10-16T07:34:24;6.38;;;5.20;;
50906;SDS011;36882;27.680;85.304;2022-10-16T07:36:55;14.27;;;7.30;;
50906;SDS011;36882;27.680;85.304;2022-10-16T07:39:25;8.55;;;6.05;;
50906;SDS011;36882;27.680;85.304;2022-10-16T07:41:56;11.98;;;6.47;;
50906;SDS011;36882;27.680;85.304;2022-10-16T07:44:28;11.85;;;7.65;;
50906;SDS011;36882;27.680;85.304;2022-10-16T07:46:59;10.93;;;7.20;;
50906;SDS011;36882;27.680;85.304;2022-10-16T07:49:29;15.25;;;7.25;;
50906;SDS011;36882;27.680;85.304;2022-10-16T07:52:00;14.20;;;7.68;;
50906;SDS011;36882;27.680;85.304;2022-10-16T07:54:31;12.30;;;7.68;;
50906;SDS011;36882;27.680;85.304;2022-10-16T07:57:01;11.50;;;7.55;;
50906;SDS011;36882;27.680;85.304;2022-10-16T07:59:32;11.80;;;8.95;;
50906;SDS011;36882;27.680;85.304;2022-10-16T08:02:02;20.45;;;8.40;;
50906;SDS011;36882;27.680;85.304;2022-10-16T08:04:34;17.52;;;8.23;;
50906;SDS011;36882;27.680;85.304;2022-10-16T08:07:06;15.57;;;7.38;;
50906;SDS011;36882;27.680;85.304;2022-10-16T08:09:37;11.77;;;8.00;;
50906;SDS011;36882;27.680;85.304;2022-10-16T08:12:08;18.23;;;8.57;;
50906;SDS011;36882;27.680;85.304;2022-10-16T08:14:39;14.63;;;8.63;;
50906;SDS011;36882;27.680;85.304;2022-10-16T08:17:13;11.30;;;7.35;;
50906;SDS011;36882;27.680;85.304;2022-10-16T08:19:45;14.18;;;8.25;;
50906;SDS011;36882;27.680;85.304;2022-10-16T08:22:16;13.80;;;9.73;;
50906;SDS011;36882;27.680;85.304;2022-10-16T08:24:46;19.60;;;11.18;;
50906;SDS011;36882;27.680;85.304;2022-10-16T08:27:17;17.65;;;8.48;;
50906;SDS011;36882;27.680;85.304;2022-10-16T08:29:48;15.80;;;8.85;;
50906;SDS011;36882;27.680;85.304;2022-10-16T08:32:19;9.27;;;8.30;;
50906;SDS011;36882;27.680;85.304;2022-10-16T08:34:53;13.45;;;9.90;;
50906;SDS011;36882;27.680;85.304;2022-10-16T08:37:23;9.88;;;8.35;;
50906;SDS011;36882;27.680;85.304;2022-10-16T08:39:54;12.32;;;8.75;;
50906;SDS011;36882;27.680;85.304;2022-10-16T08:42:31;18.35;;;10.00;;
50906;SDS011;36882;27.680;85.304;2022-10-16T08:45:21;15.00;;;10.70;;
50906;SDS011;36882;27.680;85.304;2022-10-16T08:48:20;17.77;;;8.77;;
50906;SDS011;36882;27.680;85.304;2022-10-16T08:51:12;14.52;;;9.20;;
50906;SDS011;36882;27.680;85.304;2022-10-16T08:53:53;20.38;;;8.50;;
50906;SDS011;36882;27.680;85.304;2022-10-16T08:56:27;17.98;;;8.95;;
50906;SDS011;36882;27.680;85.304;2022-10-16T08:58:57;13.07;;;8.27;;
50906;SDS011;36882;27.680;85.304;2022-10-16T09:01:39;16.90;;;8.48;;
50906;SDS011;36882;27.680;85.304;2022-10-16T09:07:36;16.70;;;9.35;;
50906;SDS011;36882;27.680;85.304;2022-10-16T09:10:37;21.23;;;9.10;;
50906;SDS011;36882;27.680;85.304;2022-10-16T09:13:29;15.88;;;9.20;;
50906;SDS011;36882;27.680;85.304;2022-10-16T09:16:24;17.35;;;8.60;;
50906;SDS011;36882;27.680;85.304;2022-10-16T09:19:20;15.90;;;8.30;;
50906;SDS011;36882;27.680;85.304;2022-10-16T09:21:57;21.40;;;7.93;;
50906;SDS011;36882;27.680;85.304;2022-10-16T09:24:37;11.30;;;9.18;;
50906;SDS011;36882;27.680;85.304;2022-10-16T09:29:42;16.40;;;9.35;;
50906;SDS011;36882;27.680;85.304;2022-10-16T09:32:13;17.85;;;9.13;;
50906;SDS011;36882;27.680;85.304;2022-10-16T09:34:47;23.52;;;8.77;;
50906;SDS011;36882;27.680;85.304;2022-10-16T09:37:21;18.55;;;10.05;;
50906;SDS011;36882;27.680;85.304;2022-10-16T09:39:53;14.35;;;9.32;;
50906;SDS011;36882;27.680;85.304;2022-10-16T09:42:26;13.07;;;10.05;;
50906;SDS011;36882;27.680;85.304;2022-10-16T09:45:02;14.00;;;9.15;;
50906;SDS011;36882;27.680;85.304;2022-10-16T09:47:35;15.32;;;10.85;;
50906;SDS011;36882;27.680;85.304;2022-10-16T09:50:26;20.33;;;11.63;;
50906;SDS011;36882;27.680;85.304;2022-10-16T09:55:49;21.05;;;12.40;;
50906;SDS011;36882;27.680;85.304;2022-10-16T09:58:22;24.27;;;13.73;;
50906;SDS011;36882;27.680;85.304;2022-10-16T10:00:53;41.80;;;15.70;;
50906;SDS011;36882;27.680;85.304;2022-10-16T10:03:33;25.15;;;14.38;;
50906;SDS011;36882;27.680;85.304;2022-10-16T10:08:57;25.40;;;13.77;;
50906;SDS011;36882;27.680;85.304;2022-10-16T10:11:50;33.90;;;13.52;;
50906;SDS011;36882;27.680;85.304;2022-10-16T10:14:30;23.15;;;13.77;;
50906;SDS011;36882;27.680;85.304;2022-10-16T10:17:09;28.90;;;15.15;;
50906;SDS011;36882;27.680;85.304;2022-10-16T10:19:43;24.52;;;15.68;;
50906;SDS011;36882;27.680;85.304;2022-10-16T10:22:18;26.85;;;14.60;;
50906;SDS011;36882;27.680;85.304;2022-10-16T10:31:06;26.98;;;17.42;;
50906;SDS011;36882;27.680;85.304;2022-10-16T10:33:58;28.30;;;17.83;;
50906;SDS011;36882;27.680;85.304;2022-10-16T10:36:40;28.65;;;15.20;;
50906;SDS011;36882;27.680;85.304;2022-10-16T10:42:22;36.53;;;18.98;;
50906;SDS011;36882;27.680;85.304;2022-10-16T10:51:05;26.35;;;17.95;;
50906;SDS011;36882;27.680;85.304;2022-10-16T10:56:44;25.33;;;18.88;;
50906;SDS011;36882;27.680;85.304;2022-10-16T11:02:23;48.55;;;25.73;;
50906;SDS011;36882;27.680;85.304;2022-10-16T11:08:17;32.80;;;23.08;;
50906;SDS011;36882;27.680;85.304;2022-10-16T11:10:53;30.40;;;21.60;;
50906;SDS011;36882;27.680;85.304;2022-10-16T11:16:32;28.90;;;23.08;;
50906;SDS011;36882;27.680;85.304;2022-10-16T11:22:11;35.50;;;22.42;;
50906;SDS011;36882;27.680;85.304;2022-10-16T11:28:07;40.07;;;24.30;;
50906;SDS011;36882;27.680;85.304;2022-10-16T11:31:02;37.70;;;23.23;;
50906;SDS011;36882;27.680;85.304;2022-10-16T11:33:57;33.15;;;21.50;;
50906;SDS011;36882;27.680;85.304;2022-10-16T11:36:50;36.38;;;22.48;;
50906;SDS011;36882;27.680;85.304;2022-10-16T11:39:27;42.78;;;24.92;;
50906;SDS011;36882;27.680;85.304;2022-10-16T11:42:02;46.65;;;28.50;;
50906;SDS011;36882;27.680;85.304;2022-10-16T11:44:51;46.10;;;31.40;;
50906;SDS011;36882;27.680;85.304;2022-10-16T11:47:41;42.67;;;28.23;;
50906;SDS011;36882;27.680;85.304;2022-10-16T11:50:34;50.95;;;28.70;;
50906;SDS011;36882;27.680;85.304;2022-10-16T11:53:28;54.35;;;29.30;;
50906;SDS011;36882;27.680;85.304;2022-10-16T11:56:18;48.03;;;34.50;;
50906;SDS011;36882;27.680;85.304;2022-10-16T11:59:08;54.08;;;35.30;;
50906;SDS011;36882;27.680;85.304;2022-10-16T12:01:49;50.92;;;33.67;;
50906;SDS011;36882;27.680;85.304;2022-10-16T12:04:31;48.15;;;31.02;;
50906;SDS011;36882;27.680;85.304;2022-10-16T12:07:17;47.22;;;31.92;;
50906;SDS011;36882;27.680;85.304;2022-10-16T12:09:53;47.95;;;32.75;;
50906;SDS011;36882;27.680;85.304;2022-10-16T12:12:26;61.72;;;37.25;;
50906;SDS011;36882;27.680;85.304;2022-10-16T12:18:26;50.58;;;33.95;;
50906;SDS011;36882;27.680;85.304;2022-10-16T12:20:57;40.55;;;31.50;;
50906;SDS011;36882;27.680;85.304;2022-10-16T12:23:33;46.42;;;30.33;;
50906;SDS011;36882;27.680;85.304;2022-10-16T12:26:07;46.25;;;31.23;;
50906;SDS011;36882;27.680;85.304;2022-10-16T12:28:38;63.15;;;38.58;;
50906;SDS011;36882;27.680;85.304;2022-10-16T12:31:10;48.22;;;32.83;;
50906;SDS011;36882;27.680;85.304;2022-10-16T12:33:41;46.08;;;28.58;;
50906;SDS011;36882;27.680;85.304;2022-10-16T12:36:34;36.80;;;27.35;;
50906;SDS011;36882;27.680;85.304;2022-10-16T12:39:04;38.15;;;25.58;;
50906;SDS011;36882;27.680;85.304;2022-10-16T12:41:34;44.85;;;26.90;;
50906;SDS011;36882;27.680;85.304;2022-10-16T12:44:24;43.53;;;27.15;;
50906;SDS011;36882;27.680;85.304;2022-10-16T12:46:55;41.80;;;28.25;;
50906;SDS011;36882;27.680;85.304;2022-10-16T12:49:34;41.28;;;28.05;;
50906;SDS011;36882;27.680;85.304;2022-10-16T12:52:23;39.63;;;26.80;;
50906;SDS011;36882;27.680;85.304;2022-10-16T12:54:56;41.80;;;31.10;;
50906;SDS011;36882;27.680;85.304;2022-10-16T13:00:42;36.05;;;25.55;;
50906;SDS011;36882;27.680;85.304;2022-10-16T13:06:39;47.88;;;28.25;;
50906;SDS011;36882;27.680;85.304;2022-10-16T13:09:38;39.17;;;26.10;;
50906;SDS011;36882;27.680;85.304;2022-10-16T13:12:35;41.08;;;27.92;;
50906;SDS011;36882;27.680;85.304;2022-10-16T13:15:32;54.65;;;27.00;;
50906;SDS011;36882;27.680;85.304;2022-10-16T13:18:25;58.15;;;27.48;;
50906;SDS011;36882;27.680;85.304;2022-10-16T13:21:09;50.72;;;27.15;;
50906;SDS011;36882;27.680;85.304;2022-10-16T13:26:50;41.45;;;24.75;;
50906;SDS011;36882;27.680;85.304;2022-10-16T13:29:41;35.90;;;23.55;;
50906;SDS011;36882;27.680;85.304;2022-10-16T13:32:11;37.65;;;26.00;;
50906;SDS011;36882;27.680;85.304;2022-10-16T13:34:45;42.55;;;26.80;;
50906;SDS011;36882;27.680;85.304;2022-10-16T13:37:21;62.58;;;34.38;;
50906;SDS011;36882;27.680;85.304;2022-10-16T13:40:02;64.13;;;35.03;;
50906;SDS011;36882;27.680;85.304;2022-10-16T13:42:47;52.03;;;32.78;;
50906;SDS011;36882;27.680;85.304;2022-10-16T13:45:21;66.50;;;32.22;;
50906;SDS011;36882;27.680;85.304;2022-10-16T13:48:02;48.47;;;30.67;;
50906;SDS011;36882;27.680;85.304;2022-10-16T13:50:33;53.57;;;32.40;;
50906;SDS011;36882;27.680;85.304;2022-10-16T13:53:04;59.30;;;33.30;;
50906;SDS011;36882;27.680;85.304;2022-10-16T13:55:35;53.35;;;30.55;;
50906;SDS011;36882;27.680;85.304;2022-10-16T13:58:07;53.17;;;27.15;;
50906;SDS011;36882;27.680;85.304;2022-10-16T14:00:52;44.75;;;27.38;;
50906;SDS011;36882;27.680;85.304;2022-10-16T14:03:25;39.17;;;24.23;;
50906;SDS011;36882;27.680;85.304;2022-10-16T14:05:58;50.08;;;25.55;;
50906;SDS011;36882;27.680;85.304;2022-10-16T14:08:31;42.42;;;22.23;;
50906;SDS011;36882;27.680;85.304;2022-10-16T14:11:01;32.55;;;20.13;;
50906;SDS011;36882;27.680;85.304;2022-10-16T14:13:34;29.95;;;18.80;;
50906;SDS011;36882;27.680;85.304;2022-10-16T14:16:09;40.70;;;19.00;;
50906;SDS011;36882;27.680;85.304;2022-10-16T14:18:46;26.35;;;18.13;;
50906;SDS011;36882;27.680;85.304;2022-10-16T14:21:37;28.63;;;17.05;;
50906;SDS011;36882;27.680;85.304;2022-10-16T14:24:11;36.15;;;20.08;;
50906;SDS011;36882;27.680;85.304;2022-10-16T14:26:50;28.83;;;19.77;;
50906;SDS011;36882;27.680;85.304;2022-10-16T14:29:24;32.67;;;17.75;;
50906;SDS011;36882;27.680;85.304;2022-10-16T14:31:59;44.10;;;21.65;;
50906;SDS011;36882;27.680;85.304;2022-10-16T14:34:33;28.77;;;18.55;;
50906;SDS011;36882;27.680;85.304;2022-10-16T14:37:22;32.28;;;19.33;;
50906;SDS011;36882;27.680;85.304;2022-10-16T14:39:55;33.83;;;20.58;;
50906;SDS011;36882;27.680;85.304;2022-10-16T14:42:25;34.92;;;19.65;;
50906;SDS011;36882;27.680;85.304;2022-10-16T14:44:56;38.67;;;18.92;;
50906;SDS011;36882;27.680;85.304;2022-10-16T14:49:56;28.60;;;17.63;;
50906;SDS011;36882;27.680;85.304;2022-10-16T14:52:27;41.78;;;20.67;;
50906;SDS011;36882;27.680;85.304;2022-10-16T14:54:57;31.70;;;17.15;;
50906;SDS011;36882;27.680;85.304;2022-10-16T14:57:29;46.22;;;19.85;;
50906;SDS011;36882;27.680;85.304;2022-10-16T15:00:02;51.45;;;27.25;;
50906;SDS011;36882;27.680;85.304;2022-10-16T15:02:41;72.00;;;45.17;;
50906;SDS011;36882;27.680;85.304;2022-10-16T15:05:17;63.90;;;39.00;;
50906;SDS011;36882;27.680;85.304;2022-10-16T15:07:50;68.95;;;37.15;;
50906;SDS011;36882;27.680;85.304;2022-10-16T15:10:22;57.22;;;37.10;;
50906;SDS011;36882;27.680;85.304;2022-10-16T15:12:54;69.80;;;38.22;;
50906;SDS011;36882;27.680;85.304;2022-10-16T15:15:30;61.45;;;35.10;;
50906;SDS011;36882;27.680;85.304;2022-10-16T15:18:05;35.90;;;21.40;;
50906;SDS011;36882;27.680;85.304;2022-10-16T15:20:36;49.85;;;22.83;;
50906;SDS011;36882;27.680;85.304;2022-10-16T15:23:24;26.73;;;14.30;;
50906;SDS011;36882;27.680;85.304;2022-10-16T15:25:55;41.63;;;14.75;;
50906;SDS011;36882;27.680;85.304;2022-10-16T15:28:25;32.17;;;16.20;;
50906;SDS011;36882;27.680;85.304;2022-10-16T15:30:56;23.95;;;13.60;;
50906;SDS011;36882;27.680;85.304;2022-10-16T15:33:26;34.30;;;18.45;;
50906;SDS011;36882;27.680;85.304;2022-10-16T15:36:06;36.40;;;20.27;;
50906;SDS011;36882;27.680;85.304;2022-10-16T15:38:36;32.88;;;18.60;;
50906;SDS011;36882;27.680;85.304;2022-10-16T15:43:35;31.40;;;17.80;;
50906;SDS011;36882;27.680;85.304;2022-10-16T15:46:06;30.38;;;17.48;;
50906;SDS011;36882;27.680;85.304;2022-10-16T15:48:39;28.95;;;15.20;;
50906;SDS011;36882;27.680;85.304;2022-10-16T15:51:09;25.42;;;13.80;;
50906;SDS011;36882;27.680;85.304;2022-10-16T15:53:39;21.60;;;13.88;;
50906;SDS011;36882;27.680;85.304;2022-10-16T15:56:10;21.15;;;13.32;;
50906;SDS011;36882;27.680;85.304;2022-10-16T15:58:42;24.15;;;13.13;;
50906;SDS011;36882;27.680;85.304;2022-10-16T16:01:12;26.50;;;13.52;;
50906;SDS011;36882;27.680;85.304;2022-10-16T16:08:43;24.17;;;12.65;;
50906;SDS011;36882;27.680;85.304;2022-10-16T16:11:13;27.27;;;13.65;;
50906;SDS011;36882;27.680;85.304;2022-10-16T16:13:44;19.48;;;12.93;;
50906;SDS011;36882;27.680;85.304;2022-10-16T16:16:15;20.90;;;11.40;;
50906;SDS011;36882;27.680;85.304;2022-10-16T16:18:48;23.30;;;11.88;;
50906;SDS011;36882;27.680;85.304;2022-10-16T16:21:21;18.65;;;11.85;;
50906;SDS011;36882;27.680;85.304;2022-10-16T16:26:24;21.83;;;11.32;;
50906;SDS011;36882;27.680;85.304;2022-10-16T16:29:00;20.17;;;12.55;;
50906;SDS011;36882;27.680;85.304;2022-10-16T16:31:31;25.73;;;10.77;;
50906;SDS011;36882;27.680;85.304;2022-10-16T16:34:02;20.10;;;11.43;;
50906;SDS011;36882;27.680;85.304;2022-10-16T16:36:33;20.05;;;12.98;;
50906;SDS011;36882;27.680;85.304;2022-10-16T16:39:03;30.08;;;12.95;;
50906;SDS011;36882;27.680;85.304;2022-10-16T16:41:33;23.15;;;11.27;;
50906;SDS011;36882;27.680;85.304;2022-10-16T16:44:04;22.40;;;11.52;;
50906;SDS011;36882;27.680;85.304;2022-10-16T16:46:35;28.67;;;13.35;;
50906;SDS011;36882;27.680;85.304;2022-10-16T16:49:08;25.83;;;12.55;;
50906;SDS011;36882;27.680;85.304;2022-10-16T16:51:41;20.52;;;12.23;;
50906;SDS011;36882;27.680;85.304;2022-10-16T16:56:43;31.52;;;15.48;;
50906;SDS011;36882;27.680;85.304;2022-10-16T16:59:14;25.45;;;13.23;;
50906;SDS011;36882;27.680;85.304;2022-10-16T17:01:46;27.65;;;12.30;;
50906;SDS011;36882;27.680;85.304;2022-10-16T17:04:22;26.90;;;13.68;;